Time;durP1;ratioP1;P1;durP2;ratioP2;P2;SDS_P1;SDS_P2;PMS_P1;PMS_P2;Temp;Humidity;BMP_temperature;BMP_pressure;BME280_temperature;BME280_humidity;BME280_pressure;Samples;Min_cycle;Max_cycle;Signal;HPM_P1;HPM_P2
2022/04/17 00:00:05;;;;;;;3.90;3.17;;;;;;;6.37;79.57;101524.13;5037701;28;20187;-56
2022/04/17 00:02:30;;;;;;;3.00;2.80;;;;;;;6.36;79.80;101532.66;5035483;28;20226;-54
2022/04/17 00:04:56;;;;;;;6.17;3.43;;;;;;;6.37;79.85;101527.59;5036899;28;20696;-57
2022/04/17 00:07:21;;;;;;;3.77;3.13;;;;;;;6.35;79.76;101526.66;5033138;28;20184;-55
2022/04/17 00:09:46;;;;;;;4.10;3.50;;;;;;;6.31;79.95;101527.38;5034625;28;20273;-56
2022/04/17 00:12:12;;;;;;;4.63;3.40;;;;;;;6.32;80.27;101520.56;5034097;28;20253;-55
2022/04/17 00:14:37;;;;;;;3.37;3.07;;;;;;;6.35;79.98;101523.22;5037541;28;20220;-57
2022/04/17 00:17:03;;;;;;;3.87;3.50;;;;;;;6.32;80.48;101515.44;5033807;28;20207;-56
2022/04/17 00:19:29;;;;;;;3.37;2.80;;;;;;;6.31;80.41;101529.09;5035584;28;20204;-56
2022/04/17 00:21:54;;;;;;;5.33;3.47;;;;;;;6.38;80.41;101525.88;5036962;28;20207;-55
2022/04/17 00:24:19;;;;;;;3.67;3.37;;;;;;;6.33;80.10;101530.88;5034727;28;20203;-57
2022/04/17 00:26:45;;;;;;;3.40;3.10;;;;;;;6.34;80.08;101527.50;5031155;28;20695;-55
2022/04/17 00:29:10;;;;;;;3.70;3.03;;;;;;;6.29;80.44;101535.91;5031992;28;20240;-56
2022/04/17 00:31:35;;;;;;;3.90;2.97;;;;;;;6.29;80.03;101538.47;5033886;28;20222;-55
2022/04/17 00:34:01;;;;;;;4.17;3.77;;;;;;;6.31;79.80;101537.69;5035111;28;20789;-55
2022/04/17 00:36:26;;;;;;;4.80;3.53;;;;;;;6.32;79.92;101534.28;5034569;28;20193;-54
2022/04/17 00:38:51;;;;;;;4.27;3.67;;;;;;;6.33;79.17;101535.16;5034467;28;20740;-53
2022/04/17 00:41:17;;;;;;;4.57;3.20;;;;;;;6.32;79.42;101531.72;5037873;28;20276;-55
2022/04/17 00:43:48;;;;;;;4.80;3.60;;;;;;;6.33;79.36;101545.44;5048056;28;20604;-55
2022/04/17 00:46:14;;;;;;;3.60;3.20;;;;;;;6.29;79.22;101538.47;5043859;28;20222;-56
2022/04/17 00:48:40;;;;;;;4.37;3.10;;;;;;;6.23;79.30;101534.88;5032096;28;20198;-54
2022/04/17 00:51:06;;;;;;;4.60;3.27;;;;;;;6.20;79.21;101526.22;5035815;28;20538;-55
2022/04/17 00:53:33;;;;;;;5.37;3.33;;;;;;;6.18;78.98;101530.44;5045340;28;20212;-54
2022/04/17 00:55:59;;;;;;;3.47;3.17;;;;;;;6.07;79.15;101518.16;5037419;28;20602;-56
2022/04/17 00:58:29;;;;;;;4.03;3.37;;;;;;;6.05;79.04;101518.94;5034424;28;20278;-57
2022/04/17 01:00:55;;;;;;;4.23;3.47;;;;;;;6.00;79.06;101518.78;5033919;28;20636;-56
2022/04/17 01:03:20;;;;;;;3.63;3.00;;;;;;;5.96;79.53;101516.94;5036952;28;20218;-52
2022/04/17 01:05:46;;;;;;;3.60;3.30;;;;;;;5.93;79.70;101519.41;5039797;28;20543;-55
2022/04/17 01:08:13;;;;;;;3.80;3.50;;;;;;;5.89;79.85;101510.75;5037744;28;20185;-56
2022/04/17 01:10:39;;;;;;;3.80;3.50;;;;;;;5.89;79.03;101505.63;5033940;28;20271;-56
2022/04/17 01:13:08;;;;;;;4.43;3.70;;;;;;;5.84;79.49;101511.41;5042258;28;20201;-56
2022/04/17 01:15:34;;;;;;;3.60;3.30;;;;;;;5.78;79.97;101502.72;5035464;28;20634;-55
2022/04/17 01:18:00;;;;;;;4.03;3.50;;;;;;;5.76;79.98;101498.34;5033700;28;20215;-57
2022/04/17 01:20:25;;;;;;;3.77;3.47;;;;;;;5.68;80.65;101498.09;5037259;28;20194;-55
2022/04/17 01:26:55;;;;;;;4.83;3.60;;;;;;;5.69;80.34;101499.84;5029975;28;20211;-56
2022/04/17 01:28:23;;;;;;;4.50;3.77;;;;;;;5.60;80.45;101504.72;5038327;28;20245;-55
2022/04/17 01:30:56;;;;;;;3.57;3.27;;;;;;;5.53;80.93;101487.34;5036882;28;20186;-55
2022/04/17 01:33:23;;;;;;;4.27;3.80;;;;;;;5.51;80.97;101489.88;5042119;28;20210;-56
2022/04/17 01:35:48;;;;;;;3.90;3.60;;;;;;;5.46;81.22;101496.56;5036859;28;20187;-56
2022/04/17 01:38:14;;;;;;;4.07;3.67;;;;;;;5.46;80.95;101494.00;5036557;28;20201;-56
2022/04/17 01:40:40;;;;;;;3.87;3.37;;;;;;;5.43;80.78;101492.22;5036150;28;20274;-54
2022/04/17 01:43:08;;;;;;;3.80;3.40;;;;;;;5.38;80.97;101490.31;5033035;28;20219;-56
2022/04/17 01:45:34;;;;;;;3.90;3.60;;;;;;;5.37;80.87;101493.72;5033238;28;20187;-54
2022/04/17 01:47:59;;;;;;;3.93;3.60;;;;;;;5.34;80.66;101482.53;5033188;28;20299;-55
2022/04/17 01:50:27;;;;;;;4.53;3.40;;;;;;;5.29;80.85;101481.53;5034628;28;20677;-54
2022/04/17 01:52:52;;;;;;;4.20;3.80;;;;;;;5.25;80.89;101479.66;5037473;28;20550;-54
2022/04/17 01:55:18;;;;;;;3.97;3.63;;;;;;;5.23;80.89;101480.44;5032757;28;20185;-55
2022/04/17 01:57:43;;;;;;;5.20;3.57;;;;;;;5.23;81.16;101475.28;5034764;28;20653;-55
2022/04/17 02:00:10;;;;;;;3.53;3.03;;;;;;;5.18;81.10;101487.97;5041437;28;20203;-55
2022/04/17 02:02:35;;;;;;;3.77;3.47;;;;;;;5.19;81.02;101466.63;5037173;28;20214;-56
2022/04/17 02:05:00;;;;;;;4.30;3.90;;;;;;;5.21;80.69;101471.84;5037095;28;20176;-55
2022/04/17 02:07:25;;;;;;;4.63;3.70;;;;;;;5.15;80.97;101457.97;5041206;28;20193;-57
2022/04/17 02:09:51;;;;;;;5.37;3.57;;;;;;;5.13;80.90;101458.75;5032500;28;20219;-56
2022/04/17 02:12:16;;;;;;;3.40;3.10;;;;;;;5.11;80.92;101461.25;5037315;28;20187;-53
2022/04/17 02:14:42;;;;;;;4.67;3.40;;;;;;;5.08;81.26;101460.28;5038269;28;20207;-55
2022/04/17 02:17:07;;;;;;;4.73;3.30;;;;;;;5.08;81.31;101458.56;5037283;28;20214;-57
2022/04/17 02:19:32;;;;;;;4.03;3.60;;;;;;;5.09;81.14;101469.72;5033652;28;20203;-55
2022/04/17 02:21:58;;;;;;;3.60;3.30;;;;;;;5.13;80.95;101469.00;5035909;28;20310;-56
2022/04/17 02:24:23;;;;;;;3.97;3.57;;;;;;;5.15;80.61;101477.59;5043202;28;20250;-56
2022/04/17 02:26:48;;;;;;;4.10;3.60;;;;;;;5.14;80.46;101465.63;5043336;28;20281;-54
2022/04/17 02:29:14;;;;;;;4.10;3.03;;;;;;;5.15;80.61;101467.34;5034322;28;20582;-57
2022/04/17 02:31:40;;;;;;;4.77;3.43;;;;;;;5.18;80.43;101460.63;5029348;28;20193;-56
2022/04/17 02:34:05;;;;;;;4.10;3.27;;;;;;;5.14;80.25;101463.06;5032541;28;20241;-56
2022/04/17 02:36:31;;;;;;;3.90;3.60;;;;;;;5.20;79.64;101452.97;5039064;28;20270;-55
2022/04/17 02:38:56;;;;;;;3.83;3.33;;;;;;;5.19;79.72;101452.13;5032512;28;20278;-56
2022/04/17 02:41:22;;;;;;;3.80;3.40;;;;;;;5.21;79.58;101464.13;5034920;28;20297;-56
2022/04/17 02:43:47;;;;;;;3.50;3.20;;;;;;;5.21;80.10;101457.28;5036422;28;20708;-57
2022/04/17 02:47:42;;;;;;;4.10;3.53;;;;;;;5.19;80.46;101466.63;5041900;28;20222;-56
2022/04/17 02:48:58;;;;;;;3.70;3.27;;;;;;;5.17;80.91;101465.69;5035872;28;20197;-54
2022/04/17 02:51:23;;;;;;;3.27;3.03;;;;;;;5.14;80.78;101465.63;5040362;28;20195;-55
2022/04/17 02:53:49;;;;;;;3.90;3.47;;;;;;;5.08;81.35;101462.84;5036285;28;20239;-54
2022/04/17 02:56:14;;;;;;;3.90;3.60;;;;;;;5.02;81.39;101460.97;5033505;28;20846;-55
2022/04/17 02:58:39;;;;;;;4.07;3.60;;;;;;;4.98;81.43;101460.00;5030690;28;20238;-54
2022/04/17 03:06:33;;;;;;;7.00;3.43;;;;;;;4.84;81.67;101466.38;5041569;28;20691;-55
2022/04/17 03:08:58;;;;;;;3.73;3.27;;;;;;;4.77;81.79;101462.69;5038246;28;20214;-54
2022/04/17 03:11:23;;;;;;;3.80;3.40;;;;;;;4.70;82.08;101459.03;5032198;28;20740;-55
2022/04/17 03:13:49;;;;;;;4.33;3.83;;;;;;;4.64;82.04;101453.72;5035048;28;20241;-57
2022/04/17 03:16:15;;;;;;;3.73;3.33;;;;;;;4.53;82.08;101455.91;5032338;28;20678;-54
2022/04/17 03:18:40;;;;;;;3.80;3.50;;;;;;;4.50;82.50;101455.81;5031788;28;20652;-56
2022/04/17 03:21:06;;;;;;;5.13;3.83;;;;;;;4.45;82.43;101456.47;5035490;28;20187;-57
2022/04/17 03:23:31;;;;;;;4.20;3.57;;;;;;;4.38;82.83;101446.00;5039555;28;20407;-54
2022/04/17 03:25:56;;;;;;;4.20;3.80;;;;;;;4.32;83.07;101444.91;5033015;28;20218;-56
2022/04/17 03:28:21;;;;;;;4.30;3.70;;;;;;;4.27;83.23;101444.75;5028984;28;20195;-56
2022/04/17 03:30:47;;;;;;;4.20;3.80;;;;;;;4.24;83.54;101444.63;5034996;28;20689;-55
2022/04/17 03:33:12;;;;;;;3.93;3.63;;;;;;;4.25;83.49;101441.25;5033459;28;20605;-56
2022/04/17 03:35:38;;;;;;;3.77;3.47;;;;;;;4.23;83.38;101433.53;5038958;28;20218;-55
2022/04/17 03:38:04;;;;;;;3.80;3.50;;;;;;;4.17;83.53;101432.44;5031243;28;20194;-55
2022/04/17 03:40:29;;;;;;;5.20;3.70;;;;;;;4.14;83.48;101424.63;5035080;28;20190;-56
2022/04/17 03:42:56;;;;;;;4.43;3.80;;;;;;;4.12;83.65;101420.31;5035300;28;20225;-55
2022/04/17 03:45:21;;;;;;;4.33;3.93;;;;;;;4.09;83.83;101420.19;5039279;28;20190;-55
2022/04/17 03:47:46;;;;;;;4.40;4.00;;;;;;;4.06;83.89;101426.91;5037290;28;20564;-55
2022/04/17 03:50:12;;;;;;;4.87;3.70;;;;;;;4.05;84.02;101435.41;5042132;28;20605;-54
2022/04/17 03:52:45;;;;;;;3.97;3.53;;;;;;;4.01;83.96;101434.44;5043536;28;20680;-55
2022/04/17 03:55:11;;;;;;;3.60;3.30;;;;;;;4.01;84.15;101431.03;5034845;28;20203;-54
2022/04/17 03:57:37;;;;;;;4.10;3.80;;;;;;;3.96;84.23;101430.81;5025022;28;20191;-54
2022/04/17 04:00:05;;;;;;;3.97;3.27;;;;;;;3.98;84.12;101431.75;5033782;28;20225;-56
2022/04/17 04:02:31;;;;;;;4.23;3.83;;;;;;;3.97;84.05;101438.59;5040837;28;20672;-54
2022/04/17 04:04:57;;;;;;;4.00;3.60;;;;;;;3.96;83.96;101441.06;5034126;28;20190;-53
2022/04/17 04:07:23;;;;;;;4.03;3.20;;;;;;;3.96;83.48;101441.97;5036950;28;20692;-53
2022/04/17 04:09:48;;;;;;;4.10;3.70;;;;;;;3.93;83.81;101440.97;5033449;28;20202;-52
2022/04/17 04:12:13;;;;;;;4.60;4.20;;;;;;;3.90;83.93;101435.75;5039370;28;20198;-53
2022/04/17 04:14:40;;;;;;;4.20;3.50;;;;;;;3.86;83.97;101428.75;5036473;28;20249;-56
2022/04/17 04:17:05;;;;;;;4.43;4.00;;;;;;;3.83;84.32;101438.88;5039350;28;20193;-54
2022/04/17 04:19:31;;;;;;;4.40;4.00;;;;;;;3.78;84.67;101434.44;5033063;28;20191;-56
2022/04/17 04:21:56;;;;;;;3.03;2.73;;;;;;;3.75;84.55;101430.91;5033612;28;20199;-55
2022/04/17 04:24:24;;;;;;;4.10;3.70;;;;;;;3.68;85.15;101428.94;5041455;28;20625;-56
2022/04/17 04:29:35;;;;;;;4.50;3.43;;;;;;;3.64;85.18;101422.81;5041431;28;20206;-55
2022/04/17 04:32:01;;;;;;;4.20;3.83;;;;;;;3.68;84.84;101418.72;5035345;28;20274;-54
2022/04/17 04:34:26;;;;;;;4.13;3.60;;;;;;;3.66;84.90;101411.84;5035362;28;20302;-54
2022/04/17 04:36:51;;;;;;;4.23;3.73;;;;;;;3.69;84.71;101407.66;5037363;28;20195;-53
2022/04/17 04:39:16;;;;;;;4.10;3.70;;;;;;;3.74;84.49;101413.78;5040594;28;20693;-56
2022/04/17 04:41:42;;;;;;;3.80;3.50;;;;;;;3.75;84.35;101406.19;5045351;28;20878;-55
2022/04/17 04:44:07;;;;;;;4.30;3.90;;;;;;;3.77;84.28;101407.13;5056681;28;20678;-55
2022/04/17 04:46:32;;;;;;;3.97;3.53;;;;;;;3.77;84.22;101417.38;5042369;28;20194;-55
2022/04/17 04:51:41;;;;;;;4.33;3.93;;;;;;;3.78;84.62;101421.63;5038764;28;20266;-55
2022/04/17 04:54:07;;;;;;;4.33;3.33;;;;;;;3.79;84.55;101414.84;5033950;28;20297;-54
2022/04/17 04:56:32;;;;;;;4.10;3.70;;;;;;;3.83;84.06;101411.59;5034036;28;20244;-55
2022/04/17 04:58:58;;;;;;;4.47;3.63;;;;;;;3.85;84.11;101402.28;5031083;28;20199;-56
2022/04/17 05:01:23;;;;;;;5.03;3.77;;;;;;;3.91;83.75;101410.16;5034416;28;20205;-56
2022/04/17 05:03:49;;;;;;;4.43;4.03;;;;;;;3.95;83.99;101413.72;5041010;28;20641;-53
2022/04/17 05:06:14;;;;;;;5.47;3.93;;;;;;;4.00;83.87;101417.31;5043499;28;20194;-55
2022/04/17 05:08:40;;;;;;;4.17;3.87;;;;;;;4.01;83.96;101415.66;5042783;28;20197;-54
2022/04/17 05:11:05;;;;;;;4.83;4.40;;;;;;;4.04;83.41;101425.97;5042267;28;20217;-55
2022/04/17 05:13:30;;;;;;;3.80;3.40;;;;;;;4.20;83.17;101419.72;5040357;28;21311;-53
2022/04/17 05:15:56;;;;;;;5.00;4.13;;;;;;;4.42;82.25;101427.34;5045799;28;20236;-55
2022/04/17 05:18:22;;;;;;;4.40;3.63;;;;;;;4.72;81.42;101424.06;5045498;28;20652;-55
2022/04/17 05:20:47;;;;;;;4.93;4.17;;;;;;;4.96;80.46;101422.25;5050211;28;20224;-55
2022/04/17 05:23:22;;;;;;;4.00;3.60;;;;;;;5.09;79.79;101411.56;5038232;28;20215;-55
2022/04/17 05:25:50;;;;;;;4.13;3.70;;;;;;;5.10;79.40;101405.63;5039186;28;20191;-55
2022/04/17 05:28:16;;;;;;;4.33;3.93;;;;;;;5.32;78.59;101409.72;5040696;28;20218;-53
2022/04/17 05:30:43;;;;;;;4.67;3.70;;;;;;;5.37;78.49;101404.72;5038108;28;20242;-55
2022/04/17 05:33:08;;;;;;;4.20;3.60;;;;;;;5.36;78.41;101412.38;5048388;28;20222;-54
2022/04/17 05:35:34;;;;;;;5.07;4.10;;;;;;;5.31;78.52;101413.13;5046383;28;20194;-53
2022/04/17 05:38:00;;;;;;;3.87;3.47;;;;;;;5.39;78.34;101423.63;5053286;28;20200;-55
2022/04/17 05:40:26;;;;;;;4.00;3.63;;;;;;;5.69;77.62;101425.34;5045920;28;20219;-54
2022/04/17 05:42:52;;;;;;;7.00;3.83;;;;;;;6.53;75.13;101425.13;5040450;28;20743;-56
2022/04/17 05:45:18;;;;;;;4.27;3.70;;;;;;;7.40;72.67;101427.22;5042563;28;20188;-54
2022/04/17 05:47:43;;;;;;;3.73;3.37;;;;;;;8.03;70.57;101422.53;5042549;28;20191;-56
2022/04/17 05:50:09;;;;;;;5.47;3.97;;;;;;;8.44;69.27;101419.84;5053788;28;20203;-54
2022/04/17 05:52:35;;;;;;;6.23;4.10;;;;;;;8.70;68.08;101419.47;5045716;28;20194;-56
2022/04/17 05:55:00;;;;;;;4.47;4.07;;;;;;;8.95;67.10;101425.91;5039558;28;20198;-56
2022/04/17 05:57:26;;;;;;;3.97;3.63;;;;;;;9.11;66.97;101431.31;5048926;28;20241;-56
2022/04/17 05:59:52;;;;;;;3.57;3.27;;;;;;;9.29;66.59;101425.56;5036885;28;20272;-54
2022/04/17 06:02:18;;;;;;;3.97;3.63;;;;;;;9.59;65.75;101425.13;5041575;28;20250;-60
2022/04/17 06:04:44;;;;;;;3.70;3.30;;;;;;;10.16;64.64;101421.50;5037155;28;20223;-55
2022/04/17 06:07:09;;;;;;;4.20;3.60;;;;;;;10.27;63.76;101409.53;5039985;28;20194;-56
2022/04/17 06:09:35;;;;;;;3.53;3.20;;;;;;;10.50;63.73;101401.19;5033997;28;20186;-55
2022/04/17 06:12:00;;;;;;;4.40;3.50;;;;;;;10.20;63.21;101412.94;5033120;28;20264;-53
2022/04/17 06:14:26;;;;;;;3.50;3.23;;;;;;;10.77;63.20;101415.22;5024980;28;20202;-56
2022/04/17 06:16:51;;;;;;;4.20;3.70;;;;;;;10.50;62.62;101419.28;5031197;28;20219;-53
2022/04/17 06:19:17;;;;;;;3.60;3.30;;;;;;;10.89;62.46;101407.53;5037595;28;20224;-56
2022/04/17 06:21:43;;;;;;;4.37;3.30;;;;;;;11.36;61.30;101408.69;5041513;28;20655;-55
2022/04/17 06:24:08;;;;;;;3.63;3.33;;;;;;;11.32;61.05;101409.56;5041963;28;20637;-56
2022/04/17 06:26:34;;;;;;;3.70;3.37;;;;;;;11.35;60.46;101404.38;5039985;28;20190;-55
2022/04/17 06:29:03;;;;;;;3.73;3.13;;;;;;;11.80;60.31;101408.94;5041523;28;20655;-55
2022/04/17 06:31:29;;;;;;;3.60;3.30;;;;;;;11.73;60.23;101406.31;5043701;28;20268;-53
2022/04/17 06:33:55;;;;;;;3.90;3.47;;;;;;;11.65;60.15;101404.53;5039936;28;20210;-54
2022/04/17 06:36:20;;;;;;;3.37;3.07;;;;;;;11.80;60.32;101403.75;5035548;28;20199;-55
2022/04/17 06:38:46;;;;;;;3.23;2.93;;;;;;;11.90;59.89;101406.38;5036686;28;20196;-55
2022/04/17 06:41:11;;;;;;;3.80;3.40;;;;;;;11.74;59.31;101401.97;5039129;28;20198;-55
2022/04/17 06:43:37;;;;;;;4.13;3.30;;;;;;;11.84;59.19;101403.75;5037129;28;20222;-53
2022/04/17 06:46:02;;;;;;;3.90;3.27;;;;;;;12.06;59.32;101390.88;5039449;28;20518;-56
2022/04/17 06:48:27;;;;;;;4.27;3.60;;;;;;;12.00;59.21;101394.31;5037785;28;20191;-54
2022/04/17 06:50:54;;;;;;;3.43;3.13;;;;;;;12.32;58.59;101388.34;5036580;28;20223;-55
2022/04/17 06:53:20;;;;;;;3.33;3.03;;;;;;;12.14;58.98;101376.22;5036220;28;20704;-54
2022/04/17 06:55:47;;;;;;;3.27;2.97;;;;;;;12.10;58.73;101366.69;5035029;28;20200;-56
2022/04/17 06:58:14;;;;;;;3.77;3.10;;;;;;;12.33;57.87;101371.91;5038633;28;20188;-56
2022/04/17 07:00:39;;;;;;;3.77;2.90;;;;;;;12.61;58.03;101368.47;5040559;28;20284;-55
2022/04/17 07:03:05;;;;;;;3.33;3.03;;;;;;;12.31;58.34;101370.19;5039646;28;20707;-56
2022/04/17 07:05:31;;;;;;;3.47;2.90;;;;;;;11.92;58.84;101372.66;5040060;28;20804;-54
2022/04/17 07:07:58;;;;;;;3.67;2.80;;;;;;;11.99;58.89;101368.38;5029574;28;20192;-56
2022/04/17 07:10:24;;;;;;;3.67;3.10;;;;;;;12.15;58.72;101357.19;5027799;28;20191;-56
2022/04/17 07:12:49;;;;;;;3.30;2.90;;;;;;;11.90;58.85;101353.63;5036893;28;20232;-54
2022/04/17 07:15:15;;;;;;;3.07;2.77;;;;;;;12.07;59.19;101343.31;5030911;28;20199;-55
2022/04/17 07:17:41;;;;;;;3.70;3.10;;;;;;;11.69;58.80;101346.66;5036544;28;20269;-56
2022/04/17 07:20:08;;;;;;;4.43;3.20;;;;;;;11.39;59.74;101343.94;5047557;28;20187;-56
2022/04/17 07:22:35;;;;;;;3.40;3.07;;;;;;;11.31;60.38;101340.44;5034057;28;20359;-55
2022/04/17 07:25:02;;;;;;;3.00;2.47;;;;;;;11.26;60.29;101334.38;5028162;28;20191;-55
2022/04/17 07:27:28;;;;;;;3.33;2.83;;;;;;;11.51;59.35;101337.06;5028080;28;20212;-56
2022/04/17 07:29:54;;;;;;;3.07;2.87;;;;;;;11.41;59.82;101337.03;5028896;28;20195;-56
2022/04/17 07:32:19;;;;;;;3.60;2.40;;;;;;;11.22;60.08;101336.09;5033996;28;20660;-57
2022/04/17 07:34:45;;;;;;;3.40;3.00;;;;;;;11.24;59.81;101333.50;5033523;28;20202;-58
2022/04/17 07:37:10;;;;;;;2.77;2.57;;;;;;;11.08;60.54;101327.38;5037650;28;20214;-56
2022/04/17 07:39:36;;;;;;;2.97;2.73;;;;;;;11.05;60.55;101340.31;5032950;28;20645;-55
2022/04/17 07:42:01;;;;;;;2.90;2.60;;;;;;;10.96;60.19;101335.94;5033494;28;20222;-55
2022/04/17 07:44:29;;;;;;;2.17;1.97;;;;;;;10.97;60.37;101332.47;5035004;28;20742;-59
2022/04/17 07:46:55;;;;;;;3.63;2.50;;;;;;;10.94;61.18;101317.81;5032223;28;20238;-54
2022/04/17 07:49:26;;;;;;;2.87;2.50;;;;;;;11.11;61.11;101322.22;5031638;28;20300;-55
2022/04/17 07:51:51;;;;;;;3.20;2.60;;;;;;;11.13;59.79;101336.91;5031931;28;20266;-55
2022/04/17 07:54:16;;;;;;;2.67;2.40;;;;;;;11.14;60.76;101322.19;5033740;28;20626;-56
2022/04/17 07:56:42;;;;;;;2.80;2.50;;;;;;;11.04;59.52;101318.69;5037518;28;20199;-53
2022/04/17 07:59:07;;;;;;;4.70;2.50;;;;;;;11.05;60.04;101312.66;5034976;28;20196;-56
2022/04/17 08:01:39;;;;;;;2.60;2.40;;;;;;;11.03;58.95;101316.09;5032483;28;20246;-55
2022/04/17 08:04:04;;;;;;;2.90;2.33;;;;;;;10.94;58.14;101310.03;5032191;28;20673;-56
2022/04/17 08:06:29;;;;;;;2.53;2.27;;;;;;;10.98;58.42;101319.53;5036081;28;20203;-56
2022/04/17 08:08:55;;;;;;;2.97;2.17;;;;;;;10.94;58.32;101306.56;5033569;28;20279;-56
2022/04/17 08:11:20;;;;;;;3.53;2.27;;;;;;;10.92;59.00;101308.28;5033176;28;20268;-56
2022/04/17 08:13:46;;;;;;;2.43;2.20;;;;;;;10.87;57.53;101313.44;5032434;28;20206;-55
2022/04/17 08:16:12;;;;;;;2.93;2.30;;;;;;;10.90;59.83;101315.16;5039843;28;20260;-55
2022/04/17 08:18:38;;;;;;;2.80;2.10;;;;;;;10.85;58.21;101301.34;5053377;28;20616;-56
2022/04/17 08:21:04;;;;;;;2.37;2.17;;;;;;;10.82;58.26;101296.97;5050782;28;20603;-56
2022/04/17 08:23:30;;;;;;;3.23;2.17;;;;;;;10.89;57.96;101308.28;5050876;28;20216;-52
2022/04/17 08:25:55;;;;;;;2.43;1.97;;;;;;;10.92;57.32;101311.75;5054584;28;20597;-57
2022/04/17 08:28:21;;;;;;;3.07;2.07;;;;;;;10.94;58.28;101316.91;5044597;28;20609;-54
2022/04/17 08:30:46;;;;;;;2.53;2.30;;;;;;;11.07;58.10;101302.31;5047372;28;20194;-56
2022/04/17 08:33:12;;;;;;;2.17;1.93;;;;;;;11.03;56.26;101305.75;5034066;28;20210;-54
2022/04/17 08:35:37;;;;;;;3.93;2.20;;;;;;;11.01;56.09;101305.75;5044908;28;20191;-57
2022/04/17 08:38:04;;;;;;;2.63;2.07;;;;;;;11.06;57.42;101306.63;5038315;28;20684;-56
2022/04/17 08:40:30;;;;;;;2.57;1.87;;;;;;;11.12;57.39;101306.66;5059803;28;20222;-55
2022/04/17 08:42:56;;;;;;;2.07;1.70;;;;;;;11.19;56.61;101304.13;5046748;28;20215;-55
2022/04/17 08:45:24;;;;;;;2.47;1.97;;;;;;;11.27;56.49;101303.25;5047338;28;20218;-53
2022/04/17 08:47:50;;;;;;;3.13;2.10;;;;;;;11.34;56.02;101296.41;5048285;28;20195;-55
2022/04/17 08:50:19;;;;;;;2.70;2.27;;;;;;;11.28;54.16;101312.78;5045533;28;20269;-55
2022/04/17 08:52:46;;;;;;;2.40;2.20;;;;;;;11.34;56.32;101292.94;5049318;28;20680;-57
2022/04/17 08:55:12;;;;;;;1.97;1.80;;;;;;;11.44;55.14;101287.81;5056776;28;20633;-54
2022/04/17 08:57:38;;;;;;;2.23;1.90;;;;;;;11.49;55.57;101272.25;5039442;28;20203;-56
2022/04/17 09:00:07;;;;;;;1.80;1.70;;;;;;;11.58;55.35;101266.25;5036043;28;20197;-57
2022/04/17 09:02:32;;;;;;;2.67;1.83;;;;;;;11.58;54.73;101259.31;5043842;28;20296;-58
2022/04/17 09:04:58;;;;;;;2.37;1.93;;;;;;;11.73;55.53;101262.81;5046548;28;20180;-56
2022/04/17 09:07:23;;;;;;;2.03;1.80;;;;;;;11.78;54.20;101262.84;5033661;28;20636;-57
2022/04/17 09:09:50;;;;;;;2.27;1.70;;;;;;;11.76;53.93;101260.22;5036845;28;20611;-55
2022/04/17 09:12:19;;;;;;;2.60;2.00;;;;;;;11.79;54.13;101244.66;5058023;28;20277;-56
2022/04/17 09:14:45;;;;;;;2.13;1.80;;;;;;;11.92;53.39;101245.56;5043798;28;20269;-57
2022/04/17 09:17:11;;;;;;;2.90;2.00;;;;;;;11.90;53.70;101237.75;5045594;28;20191;-54
2022/04/17 09:19:37;;;;;;;2.03;1.50;;;;;;;12.05;54.02;101243.84;5045507;28;20189;-57
2022/04/17 09:22:02;;;;;;;1.97;1.63;;;;;;;12.19;53.02;101229.13;5044487;28;20627;-55
2022/04/17 09:24:28;;;;;;;3.03;1.83;;;;;;;12.18;53.04;101252.50;5036278;28;20440;-54
2022/04/17 09:26:58;;;;;;;3.90;1.67;;;;;;;12.16;52.66;101230.88;5036704;28;20552;-53
2022/04/17 09:29:29;;;;;;;11.97;2.73;;;;;;;12.27;52.50;101231.72;5041799;28;20282;-54
2022/04/17 09:32:04;;;;;;;2.10;1.80;;;;;;;12.26;52.35;101230.00;5038868;28;20205;-55
2022/04/17 09:34:45;;;;;;;1.90;1.60;;;;;;;12.33;54.28;101225.66;5047455;28;20232;-54
2022/04/17 09:37:16;;;;;;;1.80;1.67;;;;;;;12.40;52.68;101229.16;5041509;28;20235;-55
2022/04/17 09:39:41;;;;;;;2.00;1.80;;;;;;;12.52;52.61;101228.25;5044410;28;20634;-53
2022/04/17 09:42:07;;;;;;;2.47;2.27;;;;;;;12.47;52.16;101213.56;5053079;28;20572;-54
2022/04/17 09:44:47;;;;;;;1.93;1.60;;;;;;;12.64;53.11;101216.09;5054069;28;20211;-54
2022/04/17 09:47:29;;;;;;;2.27;2.00;;;;;;;12.66;53.45;101229.06;5035422;28;20191;-54
2022/04/17 09:50:08;;;;;;;4.03;1.83;;;;;;;12.56;52.44;101219.59;5036487;28;20201;-54
2022/04/17 09:52:54;;;;;;;2.63;2.00;;;;;;;12.61;53.28;101213.50;5036663;28;20263;-55
2022/04/17 09:55:27;;;;;;;3.40;1.90;;;;;;;12.60;51.65;101205.75;5041068;28;20183;-53
2022/04/17 09:57:57;;;;;;;3.53;2.13;;;;;;;12.57;51.31;101206.59;5035487;28;20274;-55
2022/04/17 10:00:23;;;;;;;2.00;1.70;;;;;;;12.63;52.46;101195.31;5039861;28;20474;-53
2022/04/17 10:02:49;;;;;;;2.93;1.60;;;;;;;12.68;53.27;101205.72;5037439;28;20273;-53
2022/04/17 10:05:16;;;;;;;2.13;1.90;;;;;;;12.75;52.61;101203.09;5050034;28;20195;-53
2022/04/17 10:07:43;;;;;;;3.80;2.00;;;;;;;12.73;52.63;101190.97;5041454;28;20241;-55
2022/04/17 10:10:11;;;;;;;2.20;2.00;;;;;;;12.70;51.53;101203.97;5039876;28;20183;-53
2022/04/17 10:12:39;;;;;;;2.87;1.80;;;;;;;12.78;52.84;101208.25;5042258;28;20713;-55
2022/04/17 10:15:06;;;;;;;4.20;2.30;;;;;;;12.74;50.89;101227.34;5045558;28;20190;-55
2022/04/17 10:17:33;;;;;;;2.90;2.00;;;;;;;12.72;50.85;101199.63;5037001;28;20736;-56
2022/04/17 10:20:03;;;;;;;2.37;1.87;;;;;;;12.69;50.37;101186.66;5043674;28;20195;-54
2022/04/17 10:22:33;;;;;;;2.40;1.70;;;;;;;12.76;50.81;101164.97;5053690;28;20668;-56
2022/04/17 10:24:59;;;;;;;2.33;1.90;;;;;;;12.86;52.20;101177.06;5058412;28;20192;-54
2022/04/17 10:27:28;;;;;;;2.13;1.80;;;;;;;12.87;50.70;101178.78;5035296;28;20666;-56
2022/04/17 10:30:01;;;;;;;3.73;1.80;;;;;;;12.99;51.54;101195.22;5042656;28;20192;-55
2022/04/17 10:32:32;;;;;;;1.70;1.60;;;;;;;13.04;51.41;101167.47;5045034;28;20174;-56
2022/04/17 10:35:35;;;;;;;2.23;1.60;;;;;;;13.15;51.71;101185.59;5043181;28;20180;-56
2022/04/17 10:38:24;;;;;;;2.00;1.80;;;;;;;13.10;49.75;101170.88;5040159;28;20192;-54
2022/04/17 10:40:50;;;;;;;1.40;1.30;;;;;;;13.18;51.08;101172.59;5041510;28;20209;-56
2022/04/17 10:43:15;;;;;;;1.77;1.67;;;;;;;13.20;50.84;101182.09;5045498;28;20699;-53
2022/04/17 10:46:05;;;;;;;2.90;1.90;;;;;;;13.28;51.48;101200.25;5049338;28;20228;-56
2022/04/17 10:48:30;;;;;;;2.93;1.80;;;;;;;13.23;50.56;101181.25;5042332;28;20607;-54
2022/04/17 10:50:56;;;;;;;3.03;1.70;;;;;;;13.20;50.78;101170.84;5045829;28;20183;-56
2022/04/17 10:53:29;;;;;;;1.93;1.60;;;;;;;13.29;50.62;101183.78;5038047;28;20197;-53
2022/04/17 10:56:14;;;;;;;2.43;1.60;;;;;;;13.32;50.85;101151.69;5040991;28;20184;-55
2022/04/17 10:59:02;;;;;;;2.93;1.53;;;;;;;13.38;51.16;101165.53;5040607;28;20629;-53
2022/04/17 11:01:45;;;;;;;2.50;1.60;;;;;;;13.37;49.98;101157.75;5038842;28;20203;-55
2022/04/17 11:04:21;;;;;;;3.07;1.70;;;;;;;13.40;50.42;101155.16;5053399;28;20225;-54
2022/04/17 11:06:52;;;;;;;1.87;1.70;;;;;;;13.55;50.72;101155.06;5044314;28;20563;-54
2022/04/17 11:09:22;;;;;;;3.37;1.90;;;;;;;13.67;49.72;101166.22;5044740;28;20314;-55
2022/04/17 11:11:48;;;;;;;1.60;1.50;;;;;;;13.79;50.41;101160.91;5038592;28;20222;-54
2022/04/17 11:14:16;;;;;;;1.77;1.40;;;;;;;13.64;49.58;101161.94;5040352;28;20235;-55
2022/04/17 11:16:45;;;;;;;1.60;1.40;;;;;;;13.62;49.16;101144.59;5057245;28;20184;-53
2022/04/17 11:19:16;;;;;;;2.47;1.20;;;;;;;13.67;50.04;101137.63;5049502;28;20189;-56
2022/04/17 11:21:47;;;;;;;2.30;1.83;;;;;;;13.81;48.49;101145.31;5051620;28;20195;-54
2022/04/17 11:24:12;;;;;;;3.27;1.67;;;;;;;14.03;49.81;101144.22;5034489;28;20216;-55
2022/04/17 11:26:53;;;;;;;1.83;1.60;;;;;;;14.10;48.56;101128.56;5043152;28;20187;-53
2022/04/17 11:29:39;;;;;;;2.37;1.50;;;;;;;14.18;48.81;101137.16;5044804;28;20654;-55
2022/04/17 11:32:17;;;;;;;2.37;1.37;;;;;;;14.07;49.58;101120.78;5039702;28;20181;-54
2022/04/17 11:34:43;;;;;;;1.47;1.23;;;;;;;14.05;49.83;101114.72;5040857;28;20298;-54
2022/04/17 11:37:09;;;;;;;2.50;1.33;;;;;;;14.00;49.99;101105.22;5053136;28;20194;-55
2022/04/17 11:39:36;;;;;;;1.67;1.57;;;;;;;14.10;49.88;101103.38;5048101;28;20195;-55
2022/04/17 11:42:03;;;;;;;16.40;3.40;;;;;;;14.40;50.87;101100.47;5034130;28;20255;-54